createdAt,value
2018-11-05T00:00:40.858Z,11.97
2018-11-05T00:03:08.949Z,10.67
2018-11-05T00:05:37.116Z,12.13
2018-11-05T00:08:05.459Z,11.70
2018-11-05T00:10:33.598Z,12.20
2018-11-05T00:13:01.739Z,11.40
2018-11-05T00:15:29.854Z,10.87
2018-11-05T00:17:57.986Z,12.10
2018-11-05T00:20:26.120Z,11.13
2018-11-05T00:22:54.278Z,10.67
2018-11-05T00:25:22.432Z,13.00
2018-11-05T00:27:50.563Z,11.73
2018-11-05T00:30:18.713Z,11.17
2018-11-05T00:32:46.815Z,11.27
2018-11-05T00:35:14.954Z,11.67
2018-11-05T00:37:43.041Z,11.90
2018-11-05T00:40:15.439Z,12.57
2018-11-05T00:42:44.189Z,12.00
2018-11-05T00:45:12.790Z,12.43
2018-11-05T00:47:41.253Z,11.93
2018-11-05T00:50:11.329Z,11.63
2018-11-05T00:52:39.481Z,13.20
2018-11-05T00:55:08.498Z,12.20
2018-11-05T00:57:36.656Z,12.13
2018-11-05T01:00:07.607Z,11.23
2018-11-05T01:02:35.758Z,13.70
2018-11-05T01:05:04.396Z,12.43
2018-11-05T01:07:32.514Z,11.47
2018-11-05T01:10:00.673Z,12.00
2018-11-05T01:12:28.831Z,12.97
2018-11-05T01:14:56.996Z,10.90
2018-11-05T01:17:25.281Z,12.33
2018-11-05T01:19:53.394Z,12.20
2018-11-05T01:22:21.542Z,13.47
2018-11-05T01:24:49.630Z,13.10
2018-11-05T01:27:17.765Z,12.63
2018-11-05T01:29:45.882Z,12.53
2018-11-05T01:32:14.006Z,12.37
2018-11-05T01:34:42.105Z,12.83
2018-11-05T01:37:10.264Z,14.03
2018-11-05T01:39:38.362Z,13.93
2018-11-05T01:42:06.521Z,13.10
2018-11-05T01:44:34.665Z,13.07
2018-11-05T01:47:02.869Z,14.00
2018-11-05T01:49:30.969Z,12.40
2018-11-05T01:51:59.084Z,14.23
2018-11-05T01:54:27.291Z,13.00
2018-11-05T01:56:55.781Z,13.47
2018-11-05T01:59:23.965Z,12.77
2018-11-05T02:01:52.125Z,13.97
2018-11-05T02:04:20.314Z,12.70
2018-11-05T02:06:48.678Z,12.60
2018-11-05T02:09:16.777Z,14.47
2018-11-05T02:11:45.225Z,12.63
2018-11-05T02:14:13.359Z,12.43
2018-11-05T02:16:41.756Z,13.70
2018-11-05T02:19:09.886Z,13.30
2018-11-05T02:21:37.998Z,14.00
2018-11-05T02:24:06.118Z,14.00
2018-11-05T02:26:40.795Z,13.67
2018-11-05T02:29:08.908Z,13.77
2018-11-05T02:31:37.041Z,13.20
2018-11-05T02:34:05.382Z,13.17
2018-11-05T02:36:33.503Z,13.73
2018-11-05T02:39:01.762Z,13.27
2018-11-05T02:41:29.882Z,13.70
2018-11-05T02:43:58.028Z,13.83
2018-11-05T02:46:26.198Z,14.47
2018-11-05T02:48:54.322Z,14.53
2018-11-05T02:51:22.471Z,14.83
2018-11-05T02:53:50.916Z,14.33
2018-11-05T02:56:19.030Z,16.20
2018-11-05T02:58:47.146Z,14.27
2018-11-05T03:01:15.611Z,14.63
2018-11-05T03:03:43.784Z,14.13
2018-11-05T03:06:11.944Z,14.83
2018-11-05T03:08:40.119Z,14.17
2018-11-05T03:11:08.237Z,14.47
2018-11-05T03:13:36.423Z,14.27
2018-11-05T03:16:04.949Z,14.70
2018-11-05T03:18:33.097Z,17.13
2018-11-05T03:21:01.240Z,13.90
2018-11-05T03:23:29.401Z,12.97
2018-11-05T03:25:57.867Z,14.43
2018-11-05T03:28:26.051Z,14.23
2018-11-05T03:30:54.190Z,15.23
2018-11-05T03:33:22.319Z,14.87
2018-11-05T03:35:50.522Z,15.20
2018-11-05T03:38:19.027Z,14.77
2018-11-05T03:40:47.166Z,14.53
2018-11-05T03:43:15.326Z,14.83
2018-11-05T03:45:43.469Z,15.00
2018-11-05T03:48:11.594Z,14.33
2018-11-05T03:50:39.742Z,17.40
2018-11-05T03:53:07.908Z,16.17
2018-11-05T03:55:36.047Z,15.27
2018-11-05T03:58:04.336Z,14.97
2018-11-05T04:00:32.491Z,15.17
2018-11-05T04:03:00.634Z,14.40
2018-11-05T04:05:28.846Z,16.10
2018-11-05T04:07:57.009Z,15.93
2018-11-05T04:10:25.203Z,15.90
2018-11-05T04:12:53.390Z,16.07
2018-11-05T04:15:21.650Z,15.83
2018-11-05T04:17:49.769Z,14.73
2018-11-05T04:20:17.940Z,16.23
2018-11-05T04:22:46.142Z,15.00
2018-11-05T04:25:14.316Z,15.43
2018-11-05T04:27:42.539Z,15.43
2018-11-05T04:30:13.031Z,16.00
2018-11-05T04:32:41.571Z,15.77
2018-11-05T04:35:10.245Z,15.37
2018-11-05T04:37:38.445Z,16.77
2018-11-05T04:40:08.541Z,17.30
2018-11-05T04:42:36.822Z,16.70
2018-11-05T04:45:06.310Z,15.90
2018-11-05T04:47:34.482Z,15.57
2018-11-05T04:50:02.720Z,18.17
2018-11-05T04:52:30.935Z,16.27
2018-11-05T04:54:59.111Z,16.57
2018-11-05T04:57:27.597Z,15.47
2018-11-05T04:59:55.779Z,16.60
2018-11-05T05:02:23.963Z,16.57
2018-11-05T05:04:52.159Z,16.97
2018-11-05T05:07:20.652Z,17.00
2018-11-05T05:09:48.852Z,16.70
2018-11-05T05:12:17.034Z,16.33
2018-11-05T05:14:45.246Z,18.27
2018-11-05T05:17:13.446Z,17.27
2018-11-05T05:19:41.626Z,17.17
2018-11-05T05:22:10.101Z,17.70
2018-11-05T05:24:38.294Z,18.37
2018-11-05T05:27:06.483Z,18.73
2018-11-05T05:29:34.695Z,18.73
2018-11-05T05:32:02.879Z,17.90
2018-11-05T05:34:31.131Z,17.93
2018-11-05T05:36:59.315Z,17.63
2018-11-05T05:39:27.502Z,17.63
2018-11-05T05:41:55.723Z,16.60
2018-11-05T05:44:23.900Z,17.33
2018-11-05T05:46:52.118Z,17.90
2018-11-05T05:49:20.635Z,18.97
2018-11-05T05:51:48.834Z,19.13
2018-11-05T05:54:16.997Z,17.37
2018-11-05T05:56:45.215Z,16.70
2018-11-05T05:59:13.410Z,17.57
2018-11-05T06:01:41.594Z,18.43
2018-11-05T06:04:09.801Z,17.47
2018-11-05T06:06:38.089Z,18.93
2018-11-05T06:09:08.155Z,18.97
2018-11-05T06:11:36.405Z,19.70
2018-11-05T06:14:04.955Z,18.47
2018-11-05T06:16:33.175Z,16.57
2018-11-05T06:19:01.354Z,19.93
2018-11-05T06:21:29.906Z,17.67
2018-11-05T06:23:58.070Z,17.63
2018-11-05T06:26:26.278Z,18.60
2018-11-05T06:28:54.520Z,17.80
2018-11-05T06:31:22.683Z,18.37
2018-11-05T06:33:50.884Z,19.10
2018-11-05T06:36:19.079Z,18.53
2018-11-05T06:38:47.285Z,17.73
2018-11-05T06:41:15.587Z,17.77
2018-11-05T06:43:43.683Z,19.50
2018-11-05T06:46:12.212Z,18.23
2018-11-05T06:48:40.417Z,18.33
2018-11-05T06:51:08.589Z,18.00
2018-11-05T06:53:36.845Z,18.87
2018-11-05T06:56:05.031Z,19.00
2018-11-05T06:58:33.199Z,18.90
2018-11-05T07:01:01.458Z,18.17
2018-11-05T07:03:29.668Z,19.90
2018-11-05T07:05:57.966Z,18.83
2018-11-05T07:08:26.512Z,19.53
2018-11-05T07:10:54.686Z,17.90
2018-11-05T07:13:22.904Z,18.40
2018-11-05T07:15:51.414Z,19.77
2018-11-05T07:18:19.726Z,21.50
2018-11-05T07:20:47.938Z,19.27
2018-11-05T07:23:16.172Z,19.00
2018-11-05T07:25:44.358Z,18.77
2018-11-05T07:28:12.611Z,20.23
2018-11-05T07:30:40.955Z,19.53
2018-11-05T07:33:09.250Z,17.80
2018-11-05T07:35:37.377Z,19.20
2018-11-05T07:38:05.736Z,18.17
2018-11-05T07:40:33.934Z,17.80
2018-11-05T07:43:02.350Z,19.13
2018-11-05T07:45:30.583Z,18.33
2018-11-05T07:47:58.784Z,20.20
2018-11-05T07:50:27.089Z,18.90
2018-11-05T07:52:55.189Z,18.43
2018-11-05T07:55:23.373Z,19.37
2018-11-05T07:57:52.033Z,19.23
2018-11-05T08:00:25.776Z,18.90
2018-11-05T08:02:55.280Z,20.23
2018-11-05T08:05:24.415Z,19.10
2018-11-05T08:07:52.726Z,18.97
2018-11-05T08:10:20.942Z,18.37
2018-11-05T08:12:49.138Z,20.30
2018-11-05T08:15:21.602Z,17.90
2018-11-05T08:17:50.770Z,16.93
2018-11-05T08:20:19.006Z,18.93
2018-11-05T08:22:47.203Z,18.03
2018-11-05T08:25:16.080Z,17.60
2018-11-05T08:27:44.644Z,19.77
2018-11-05T08:30:16.129Z,17.53
2018-11-05T08:32:44.335Z,18.23
2018-11-05T08:35:13.303Z,18.83
2018-11-05T08:37:42.498Z,18.10
2018-11-05T08:40:14.183Z,18.23
2018-11-05T08:42:43.196Z,17.70
2018-11-05T08:45:12.538Z,19.77
2018-11-05T08:47:40.739Z,17.80
2018-11-05T08:50:11.033Z,18.23
2018-11-05T08:52:39.224Z,18.73
2018-11-05T08:55:09.227Z,18.07
2018-11-05T08:57:37.436Z,17.70
2018-11-05T09:00:08.684Z,19.00
2018-11-05T09:02:36.885Z,17.67
2018-11-05T09:05:05.499Z,17.33
2018-11-05T09:07:33.703Z,17.80
2018-11-05T09:10:02.106Z,17.27
2018-11-05T09:12:30.203Z,18.37
2018-11-05T09:14:58.439Z,18.70
2018-11-05T09:17:26.650Z,17.43
2018-11-05T09:19:54.855Z,17.90
2018-11-05T09:22:23.167Z,18.53
2018-11-05T09:24:51.546Z,18.50
2018-11-05T09:27:19.762Z,19.93
2018-11-05T09:29:47.959Z,17.43
2018-11-05T09:32:16.192Z,17.43
2018-11-05T09:34:44.413Z,19.67
2018-11-05T09:37:12.615Z,17.73
2018-11-05T09:39:40.805Z,17.63
2018-11-05T09:42:08.991Z,18.30
2018-11-05T09:44:37.211Z,21.20
2018-11-05T09:47:05.960Z,20.30
2018-11-05T09:49:34.143Z,18.67
2018-11-05T09:52:02.318Z,20.67
2018-11-05T09:54:30.511Z,17.53
2018-11-05T09:56:58.759Z,18.73
2018-11-05T09:59:26.942Z,20.90
2018-11-05T10:01:55.189Z,17.83
2018-11-05T10:04:23.465Z,17.30
2018-11-05T10:06:51.622Z,19.83
2018-11-05T10:09:19.826Z,20.07
2018-11-05T10:11:48.009Z,20.80
2018-11-05T10:14:16.212Z,19.50
2018-11-05T10:16:44.407Z,18.63
2018-11-05T10:19:12.928Z,17.90
2018-11-05T10:21:41.090Z,18.67
2018-11-05T10:24:09.260Z,18.53
2018-11-05T10:26:37.490Z,19.47
2018-11-05T10:29:05.774Z,18.23
2018-11-05T10:31:33.963Z,17.40
2018-11-05T10:34:02.130Z,19.43
2018-11-05T10:36:30.639Z,17.93
2018-11-05T10:38:58.817Z,19.67
2018-11-05T10:41:27.002Z,18.43
2018-11-05T10:43:55.182Z,18.50
2018-11-05T10:46:23.447Z,19.43
2018-11-05T10:48:51.541Z,18.30
2018-11-05T10:51:19.845Z,18.33
2018-11-05T10:53:48.008Z,18.13
2018-11-05T10:56:16.158Z,17.93
2018-11-05T10:58:44.346Z,18.10
2018-11-05T11:01:12.566Z,16.87
2018-11-05T11:03:40.947Z,21.27
2018-11-05T11:06:10.190Z,16.67
2018-11-05T11:08:38.364Z,18.67
2018-11-05T11:11:06.574Z,17.93
2018-11-05T11:13:34.799Z,18.07
2018-11-05T11:16:02.930Z,17.60
2018-11-05T11:18:31.122Z,17.73
2018-11-05T11:21:00.291Z,18.87
2018-11-05T11:23:28.450Z,17.80
2018-11-05T11:25:56.646Z,16.53
2018-11-05T11:28:24.940Z,17.00
2018-11-05T11:30:53.127Z,17.30
2018-11-05T11:33:21.281Z,18.20
2018-11-05T11:35:49.539Z,17.57
2018-11-05T11:38:18.049Z,17.30
2018-11-05T11:40:46.238Z,16.50
2018-11-05T11:43:14.410Z,16.93
2018-11-05T11:45:42.586Z,17.33
2018-11-05T11:48:10.769Z,16.80
2018-11-05T11:50:39.840Z,16.33
2018-11-05T11:53:08.964Z,17.63
2018-11-05T11:55:38.768Z,17.00
2018-11-05T11:58:07.910Z,17.60
2018-11-05T12:00:37.081Z,18.37
2018-11-05T12:03:06.456Z,16.07
2018-11-05T12:05:34.616Z,17.87
2018-11-05T12:08:03.146Z,17.23
2018-11-05T12:10:31.320Z,18.47
2018-11-05T12:12:59.515Z,16.57
2018-11-05T12:15:27.673Z,20.10
2018-11-05T12:17:55.877Z,17.00
2018-11-05T12:20:25.242Z,16.73
2018-11-05T12:22:53.929Z,18.03
2018-11-05T12:25:22.084Z,16.07
2018-11-05T12:27:50.259Z,19.10
2018-11-05T12:30:19.794Z,16.93
2018-11-05T12:32:48.899Z,16.27
2018-11-05T12:35:17.157Z,18.03
2018-11-05T12:37:46.434Z,16.23
2018-11-05T12:40:15.874Z,20.13
2018-11-05T12:42:45.243Z,17.53
2018-11-05T12:45:13.410Z,19.00
2018-11-05T12:47:41.619Z,16.87
2018-11-05T12:50:14.781Z,16.03
2018-11-05T12:52:45.204Z,17.00
2018-11-05T12:55:13.383Z,16.47
2018-11-05T12:57:41.774Z,16.13
2018-11-05T13:00:14.976Z,17.53
2018-11-05T13:02:43.199Z,17.30
2018-11-05T13:05:12.658Z,15.63
2018-11-05T13:07:41.090Z,13.80
2018-11-05T13:10:10.908Z,15.07
2018-11-05T13:12:39.318Z,14.70
2018-11-05T13:15:08.069Z,15.03
2018-11-05T13:17:36.843Z,14.60
2018-11-05T13:20:05.643Z,15.70
2018-11-05T13:22:33.813Z,15.23
2018-11-05T13:25:01.993Z,15.43
2018-11-05T13:27:30.150Z,14.97
2018-11-05T13:29:58.314Z,15.33
2018-11-05T13:32:26.518Z,15.47
2018-11-05T13:34:54.710Z,15.40
2018-11-05T13:37:23.169Z,14.63
2018-11-05T13:39:51.082Z,17.53
2018-11-05T13:42:19.295Z,13.87
2018-11-05T13:44:47.578Z,14.53
2018-11-05T13:47:16.031Z,16.33
2018-11-05T13:49:44.110Z,15.20
2018-11-05T13:52:12.121Z,15.37
2018-11-05T13:54:40.476Z,16.17
2018-11-05T13:57:08.555Z,15.73
2018-11-05T13:59:36.715Z,13.97
2018-11-05T14:02:05.477Z,15.83
2018-11-05T14:04:33.686Z,17.47
2018-11-05T14:07:01.854Z,15.63
2018-11-05T14:09:30.033Z,16.80
2018-11-05T14:11:58.193Z,16.60
2018-11-05T14:14:26.391Z,15.17
2018-11-05T14:16:54.598Z,15.07
2018-11-05T14:19:22.847Z,15.23
2018-11-05T14:21:51.005Z,16.73
2018-11-05T14:24:19.370Z,14.23
2018-11-05T14:26:47.526Z,14.67
2018-11-05T14:29:16.044Z,15.53
2018-11-05T14:31:43.954Z,13.53
2018-11-05T14:34:12.155Z,13.73
2018-11-05T14:36:40.393Z,15.00
2018-11-05T14:39:13.089Z,17.03
2018-11-05T14:41:42.087Z,14.73
2018-11-05T14:44:12.143Z,17.17
2018-11-05T14:46:40.993Z,14.57
2018-11-05T14:49:11.085Z,15.93
2018-11-05T14:51:39.684Z,19.27
2018-11-05T14:54:09.181Z,18.27
2018-11-05T14:56:40.115Z,16.00
2018-11-05T14:59:09.304Z,16.37
2018-11-05T15:01:37.956Z,16.50
2018-11-05T15:04:06.780Z,15.37
2018-11-05T15:06:35.429Z,15.20
2018-11-05T15:09:04.638Z,16.60
2018-11-05T15:11:32.899Z,16.00
2018-11-05T15:14:01.142Z,16.53
2018-11-05T15:16:29.305Z,17.00
2018-11-05T15:18:58.027Z,19.00
2018-11-05T15:21:25.847Z,17.13
2018-11-05T15:23:54.051Z,16.20
2018-11-05T15:26:23.148Z,16.47
2018-11-05T15:28:52.237Z,19.87
2018-11-05T15:31:20.519Z,15.67
2018-11-05T15:33:48.731Z,19.17
2018-11-05T15:36:16.882Z,20.10
2018-11-05T15:38:45.044Z,17.03
2018-11-05T15:41:13.230Z,17.53
2018-11-05T15:43:41.497Z,20.10
2018-11-05T15:46:09.747Z,17.73
2018-11-05T15:48:37.949Z,20.70
2018-11-05T15:51:06.313Z,17.77
2018-11-05T15:53:34.724Z,19.53
2018-11-05T15:56:02.553Z,19.87
2018-11-05T15:58:30.757Z,20.53
2018-11-05T16:00:58.934Z,20.30
2018-11-05T16:03:27.203Z,19.87
2018-11-05T16:05:55.408Z,20.33
2018-11-05T16:08:23.570Z,21.03
2018-11-05T16:10:51.762Z,20.20
2018-11-05T16:13:19.950Z,20.47
2018-11-05T16:15:48.110Z,21.10
2018-11-05T16:18:16.280Z,21.87
2018-11-05T16:20:44.473Z,21.40
2018-11-05T16:23:12.758Z,20.90
2018-11-05T16:25:41.047Z,22.03
2018-11-05T16:28:09.193Z,21.33
2018-11-05T16:30:37.451Z,21.73
2018-11-05T16:33:05.620Z,21.27
2018-11-05T16:35:34.106Z,21.73
2018-11-05T16:38:02.211Z,22.77
2018-11-05T16:40:30.428Z,22.73
2018-11-05T16:42:58.625Z,24.53
2018-11-05T16:45:26.815Z,23.93
2018-11-05T16:47:55.033Z,24.27
2018-11-05T16:50:25.229Z,23.73
2018-11-05T16:52:53.578Z,24.10
2018-11-05T16:55:21.771Z,23.03
2018-11-05T16:57:50.056Z,23.17
2018-11-05T17:00:18.446Z,25.83
2018-11-05T17:02:47.402Z,25.67
2018-11-05T17:05:15.441Z,27.97
2018-11-05T17:07:43.682Z,26.43
2018-11-05T17:10:13.073Z,27.00
2018-11-05T17:12:41.842Z,29.60
2018-11-05T17:15:11.581Z,23.23
2018-11-05T17:17:40.242Z,24.70
2018-11-05T17:20:10.208Z,25.67
2018-11-05T17:22:38.986Z,24.60
2018-11-05T17:25:08.365Z,27.25
2018-11-05T17:27:37.516Z,30.77
2018-11-05T17:30:09.485Z,24.20
2018-11-05T17:32:37.946Z,26.00
2018-11-05T17:35:06.981Z,24.53
2018-11-05T17:37:35.338Z,26.50
2018-11-05T17:40:03.602Z,25.57
2018-11-05T17:42:31.710Z,24.67
2018-11-05T17:44:59.893Z,26.50
2018-11-05T17:47:28.239Z,27.33
2018-11-05T17:49:56.410Z,25.47
2018-11-05T17:52:24.566Z,26.60
2018-11-05T17:54:52.746Z,24.93
2018-11-05T17:57:20.984Z,24.83
2018-11-05T17:59:49.191Z,24.97
2018-11-05T18:02:18.338Z,26.23
2018-11-05T18:04:46.521Z,27.00
2018-11-05T18:07:14.687Z,27.10
2018-11-05T18:09:42.899Z,29.57
2018-11-05T18:12:11.093Z,30.70
2018-11-05T18:14:39.283Z,28.43
2018-11-05T18:17:07.462Z,26.80
2018-11-05T18:19:35.637Z,27.10
2018-11-05T18:22:03.854Z,28.57
2018-11-05T18:24:32.149Z,28.40
2018-11-05T18:27:00.354Z,29.33
2018-11-05T18:29:28.654Z,28.97
2018-11-05T18:31:56.827Z,27.33
2018-11-05T18:34:25.048Z,28.73
2018-11-05T18:36:53.404Z,28.40
2018-11-05T18:39:21.567Z,26.20
2018-11-05T18:41:49.979Z,27.77
2018-11-05T18:44:18.154Z,27.27
2018-11-05T18:46:46.339Z,27.40
2018-11-05T18:49:14.522Z,31.43
2018-11-05T18:51:42.768Z,27.83
2018-11-05T18:54:11.170Z,28.80
2018-11-05T18:56:39.412Z,29.23
2018-11-05T18:59:07.970Z,28.63
2018-11-05T19:01:36.246Z,29.30
2018-11-05T19:04:04.668Z,28.70
2018-11-05T19:06:32.848Z,28.00
2018-11-05T19:09:01.055Z,27.63
2018-11-05T19:11:29.253Z,27.53
2018-11-05T19:13:57.752Z,28.40
2018-11-05T19:16:26.110Z,28.70
2018-11-05T19:18:54.269Z,28.50
2018-11-05T19:21:22.528Z,28.73
2018-11-05T19:23:51.082Z,28.03
2018-11-05T19:26:19.082Z,28.77
2018-11-05T19:28:47.308Z,27.03
2018-11-05T19:31:15.479Z,28.93
2018-11-05T19:33:43.734Z,27.90
2018-11-05T19:36:11.927Z,27.47
2018-11-05T19:38:40.154Z,30.17
2018-11-05T19:41:08.374Z,27.37
2018-11-05T19:43:36.659Z,29.10
2018-11-05T19:46:05.180Z,32.57
2018-11-05T19:48:33.349Z,29.20
2018-11-05T19:51:01.566Z,29.40
2018-11-05T19:53:29.796Z,29.03
2018-11-05T19:55:57.975Z,32.13
2018-11-05T19:58:26.127Z,29.87
2018-11-05T20:00:54.469Z,33.13
2018-11-05T20:03:22.532Z,30.40
2018-11-05T20:05:50.763Z,30.77
2018-11-05T20:08:18.895Z,31.57
2018-11-05T20:10:47.037Z,32.37
2018-11-05T20:13:15.247Z,35.33
2018-11-05T20:15:43.629Z,31.83
2018-11-05T20:18:11.735Z,32.20
2018-11-05T20:20:39.917Z,32.37
2018-11-05T20:23:08.064Z,30.87
2018-11-05T20:25:36.287Z,30.20
2018-11-05T20:28:04.472Z,32.33
2018-11-05T20:30:32.650Z,33.90
2018-11-05T20:33:01.070Z,28.17
2018-11-05T20:35:29.031Z,30.40
2018-11-05T20:37:57.355Z,29.57
2018-11-05T20:40:25.792Z,28.63
2018-11-05T20:42:53.978Z,29.60
2018-11-05T20:45:22.932Z,28.40
2018-11-05T20:47:51.151Z,30.13
2018-11-05T20:50:19.567Z,28.53
2018-11-05T20:52:47.736Z,28.63
2018-11-05T20:55:17.124Z,28.37
2018-11-05T20:57:45.428Z,30.90
2018-11-05T21:00:15.861Z,29.53
2018-11-05T21:02:44.229Z,27.23
2018-11-05T21:05:12.412Z,29.47
2018-11-05T21:07:41.626Z,26.97
2018-11-05T21:10:11.086Z,27.77
2018-11-05T21:12:40.391Z,27.90
2018-11-05T21:15:14.750Z,28.87
2018-11-05T21:17:43.537Z,29.47
2018-11-05T21:20:11.967Z,30.60
2018-11-05T21:22:40.276Z,28.77
2018-11-05T21:25:09.084Z,30.47
2018-11-05T21:27:37.269Z,30.97
2018-11-05T21:30:08.557Z,28.57
2018-11-05T21:32:37.686Z,29.47
2018-11-05T21:35:06.534Z,28.73
2018-11-05T21:37:34.710Z,28.93
2018-11-05T21:40:02.987Z,30.20
2018-11-05T21:42:31.203Z,32.07
2018-11-05T21:44:59.372Z,31.97
2018-11-05T21:47:27.672Z,32.60
2018-11-05T21:49:55.765Z,31.60
2018-11-05T21:52:23.979Z,32.10
2018-11-05T21:54:52.157Z,33.70
2018-11-05T21:57:20.367Z,33.77
2018-11-05T21:59:48.854Z,30.33
2018-11-05T22:02:17.042Z,31.27
2018-11-05T22:04:45.218Z,30.90
2018-11-05T22:07:13.423Z,35.90
2018-11-05T22:09:41.574Z,33.60
2018-11-05T22:12:09.798Z,31.63
2018-11-05T22:14:37.938Z,33.00
2018-11-05T22:17:06.106Z,34.00
2018-11-05T22:19:34.294Z,34.37
2018-11-05T22:22:02.528Z,32.07
2018-11-05T22:24:30.704Z,31.83
2018-11-05T22:26:58.864Z,31.23
2018-11-05T22:29:27.029Z,33.47
2018-11-05T22:31:55.328Z,35.67
2018-11-05T22:34:23.505Z,35.17
2018-11-05T22:36:51.673Z,35.10
2018-11-05T22:39:19.859Z,35.50
2018-11-05T22:41:48.071Z,33.17
2018-11-05T22:44:16.243Z,34.17
2018-11-05T22:46:44.432Z,36.73
2018-11-05T22:49:12.619Z,36.43
2018-11-05T22:51:40.870Z,32.80
2018-11-05T22:54:09.432Z,36.70
2018-11-05T22:56:37.557Z,29.03
2018-11-05T22:59:05.749Z,33.77
2018-11-05T23:01:39.394Z,29.43
2018-11-05T23:04:07.592Z,31.63
2018-11-05T23:06:35.830Z,30.27
2018-11-05T23:09:05.133Z,29.70
2018-11-05T23:11:33.321Z,29.80
2018-11-05T23:14:01.477Z,33.13
2018-11-05T23:16:29.679Z,32.63
2018-11-05T23:18:57.844Z,31.13
2018-11-05T23:21:26.030Z,31.73
2018-11-05T23:23:54.236Z,30.57
2018-11-05T23:26:22.377Z,37.57
2018-11-05T23:28:50.624Z,37.10
2018-11-05T23:31:18.773Z,31.03
2018-11-05T23:33:47.390Z,34.00
2018-11-05T23:36:15.580Z,31.70
2018-11-05T23:38:43.737Z,33.00
2018-11-05T23:41:11.903Z,33.03
2018-11-05T23:43:40.098Z,33.10
2018-11-05T23:46:08.326Z,30.30
2018-11-05T23:48:36.502Z,32.67
2018-11-05T23:51:04.982Z,32.97
2018-11-05T23:53:33.486Z,33.43
2018-11-05T23:56:01.736Z,32.20
2018-11-05T23:58:29.904Z,32.30
